createdAt,value
2018-02-12T00:00:03.892Z,1.84
2018-02-12T00:02:34.732Z,1.89
2018-02-12T00:05:10.732Z,1.86
2018-02-12T00:07:41.496Z,1.89
2018-02-12T00:10:12.273Z,1.86
2018-02-12T00:12:43.173Z,1.91
2018-02-12T00:15:13.986Z,1.97
2018-02-12T00:17:44.936Z,1.93
2018-02-12T00:20:15.776Z,1.93
2018-02-12T00:22:46.960Z,1.81
2018-02-12T00:25:17.996Z,1.72
2018-02-12T00:27:48.840Z,1.65
2018-02-12T00:30:19.636Z,1.63
2018-02-12T00:32:50.427Z,1.58
2018-02-12T00:35:21.176Z,1.53
2018-02-12T00:37:51.970Z,1.42
2018-02-12T00:40:22.728Z,1.35
2018-02-12T00:42:53.508Z,1.22
2018-02-12T00:45:24.249Z,1.09
2018-02-12T00:47:55.048Z,1.10
2018-02-12T00:50:25.849Z,1.07
2018-02-12T00:52:56.620Z,0.79
2018-02-12T00:55:27.468Z,0.63
2018-02-12T00:57:58.336Z,0.50
2018-02-12T01:00:29.252Z,0.41
2018-02-12T01:03:00.112Z,0.43
2018-02-12T01:05:30.912Z,0.57
2018-02-12T01:08:01.814Z,0.76
2018-02-12T01:10:32.707Z,0.89
2018-02-12T01:13:03.629Z,1.12
2018-02-12T01:15:34.496Z,1.17
2018-02-12T01:18:05.317Z,1.22
2018-02-12T01:20:36.308Z,1.26
2018-02-12T01:23:07.180Z,1.27
2018-02-12T01:25:37.963Z,1.26
2018-02-12T01:28:08.737Z,1.24
2018-02-12T01:30:39.516Z,1.21
2018-02-12T01:33:10.432Z,1.31
2018-02-12T01:35:41.357Z,1.23
2018-02-12T01:38:12.240Z,1.19
2018-02-12T01:40:43.032Z,1.10
2018-02-12T01:43:13.937Z,1.20
2018-02-12T01:45:44.767Z,1.35
2018-02-12T01:48:15.642Z,1.34
2018-02-12T01:50:46.427Z,1.24
2018-02-12T01:53:17.709Z,1.24
2018-02-12T01:55:48.996Z,1.29
2018-02-12T01:58:20.361Z,1.22
2018-02-12T02:00:51.512Z,1.20
2018-02-12T02:03:22.349Z,1.25
2018-02-12T02:05:55.224Z,1.28
2018-02-12T02:08:26.403Z,1.35
2018-02-12T02:10:57.419Z,1.37
2018-02-12T02:13:28.254Z,1.41
2018-02-12T02:15:59.064Z,1.38
2018-02-12T02:18:29.875Z,1.41
2018-02-12T02:21:00.676Z,1.39
2018-02-12T02:23:31.524Z,1.42
2018-02-12T02:26:02.424Z,1.27
2018-02-12T02:28:33.272Z,1.27
2018-02-12T02:31:04.053Z,1.24
2018-02-12T02:33:34.821Z,1.33
2018-02-12T02:36:05.693Z,1.27
2018-02-12T02:38:36.472Z,1.19
2018-02-12T02:41:07.445Z,1.12
2018-02-12T02:43:38.227Z,1.03
2018-02-12T02:46:08.985Z,0.99
2018-02-12T02:48:39.776Z,1.01
2018-02-12T02:51:12.719Z,0.86
2018-02-12T02:53:43.536Z,0.79
2018-02-12T02:56:14.363Z,0.80
2018-02-12T02:58:45.185Z,0.88
2018-02-12T03:01:16.020Z,1.03
2018-02-12T03:03:46.853Z,1.13
2018-02-12T03:06:17.804Z,1.16
2018-02-12T03:08:48.621Z,1.19
2018-02-12T03:11:19.419Z,1.20
2018-02-12T03:13:50.183Z,1.28
2018-02-12T03:16:20.960Z,1.28
2018-02-12T03:18:51.789Z,1.28
2018-02-12T03:21:22.560Z,1.28
2018-02-12T03:23:53.337Z,1.29
2018-02-12T03:26:24.095Z,1.21
2018-02-12T03:28:54.855Z,1.22
2018-02-12T03:31:25.648Z,1.13
2018-02-12T03:33:56.413Z,1.13
2018-02-12T03:36:27.219Z,1.22
2018-02-12T03:38:57.995Z,1.25
2018-02-12T03:41:28.764Z,1.29
2018-02-12T03:44:00.588Z,1.35
2018-02-12T03:46:31.368Z,1.39
2018-02-12T03:49:02.201Z,1.54
2018-02-12T03:51:32.972Z,1.51
2018-02-12T03:54:03.756Z,1.63
2018-02-12T03:56:34.543Z,1.60
2018-02-12T03:59:05.312Z,1.59
2018-02-12T04:01:36.089Z,1.61
2018-02-12T04:04:06.920Z,1.67
2018-02-12T04:06:37.760Z,1.68
2018-02-12T04:09:08.813Z,1.62
2018-02-12T04:11:39.748Z,1.59
2018-02-12T04:14:10.548Z,1.61
2018-02-12T04:16:41.297Z,1.64
2018-02-12T04:19:12.124Z,1.53
2018-02-12T04:21:43.781Z,1.59
2018-02-12T04:24:14.876Z,1.67
2018-02-12T04:26:46.163Z,1.67
2018-02-12T04:29:18.074Z,1.67
2018-02-12T04:31:49.253Z,1.62
2018-02-12T04:34:20.422Z,1.62
2018-02-12T04:36:51.599Z,1.61
2018-02-12T04:39:22.933Z,1.60
2018-02-12T04:41:54.293Z,1.56
2018-02-12T04:44:25.284Z,1.53
2018-02-12T04:46:56.632Z,1.58
2018-02-12T04:49:28.172Z,1.55
2018-02-12T04:51:59.830Z,1.61
2018-02-12T04:54:31.109Z,1.55
2018-02-12T04:57:02.131Z,1.57
2018-02-12T04:59:33.318Z,1.51
2018-02-12T05:02:04.387Z,1.55
2018-02-12T05:04:35.571Z,1.57
2018-02-12T05:07:06.505Z,1.58
2018-02-12T05:09:37.594Z,1.66
2018-02-12T05:12:08.525Z,1.63
2018-02-12T05:14:39.805Z,1.70
2018-02-12T05:17:11.376Z,1.74
2018-02-12T05:19:42.414Z,1.79
2018-02-12T05:22:13.473Z,1.82
2018-02-12T05:24:44.709Z,1.79
2018-02-12T05:27:15.921Z,1.78
2018-02-12T05:29:47.168Z,1.75
2018-02-12T05:32:18.693Z,1.72
2018-02-12T05:34:49.690Z,1.76
2018-02-12T05:37:20.803Z,1.63
2018-02-12T05:39:52.052Z,1.52
2018-02-12T05:42:23.150Z,1.54
2018-02-12T05:44:54.277Z,1.43
2018-02-12T05:47:25.420Z,1.32
2018-02-12T05:49:56.305Z,1.21
2018-02-12T05:52:27.398Z,1.01
2018-02-12T05:54:58.231Z,0.94
2018-02-12T05:57:28.992Z,0.80
2018-02-12T05:59:59.761Z,0.77
2018-02-12T06:02:30.617Z,0.75
2018-02-12T06:05:01.448Z,0.72
2018-02-12T06:07:32.196Z,0.74
2018-02-12T06:10:03.020Z,0.72
2018-02-12T06:12:33.871Z,0.71
2018-02-12T06:15:04.740Z,0.65
2018-02-12T06:17:35.675Z,0.73
2018-02-12T06:20:06.536Z,0.56
2018-02-12T06:22:37.508Z,0.51
2018-02-12T06:25:08.718Z,0.37
2018-02-12T06:27:39.855Z,0.21
2018-02-12T06:30:10.995Z,0.14
2018-02-12T06:32:42.017Z,0.19
2018-02-12T06:35:13.048Z,0.20
2018-02-12T06:37:43.953Z,0.16
2018-02-12T06:40:15.000Z,0.06
2018-02-12T06:42:47.077Z,-0.02
2018-02-12T06:45:18.036Z,-0.05
2018-02-12T06:47:49.905Z,-0.09
2018-02-12T06:50:20.973Z,-0.06
2018-02-12T06:52:52.040Z,0.01
2018-02-12T06:55:23.129Z,0.11
2018-02-12T06:57:54.260Z,0.18
2018-02-12T07:00:25.264Z,0.21
2018-02-12T07:02:56.430Z,0.25
2018-02-12T07:05:27.300Z,0.31
2018-02-12T07:07:58.154Z,0.35
2018-02-12T07:10:29.132Z,0.41
2018-02-12T07:12:59.992Z,0.45
2018-02-12T07:15:30.853Z,0.46
2018-02-12T07:18:01.661Z,0.54
2018-02-12T07:20:32.490Z,0.63
2018-02-12T07:23:03.378Z,0.76
2018-02-12T07:25:34.277Z,0.81
2018-02-12T07:28:05.124Z,0.88
2018-02-12T07:30:36.397Z,0.95
2018-02-12T07:33:08.710Z,1.05
2018-02-12T07:35:39.585Z,1.20
2018-02-12T07:38:10.540Z,1.26
2018-02-12T07:40:41.404Z,1.32
2018-02-12T07:43:12.229Z,1.43
2018-02-12T07:45:43.016Z,1.52
2018-02-12T07:48:13.762Z,1.64
2018-02-12T07:50:44.508Z,1.68
2018-02-12T07:53:15.289Z,1.87
2018-02-12T07:55:46.084Z,1.88
2018-02-12T07:58:16.837Z,1.92
2018-02-12T08:00:47.781Z,1.90
2018-02-12T08:03:18.585Z,1.94
2018-02-12T08:05:49.412Z,1.93
2018-02-12T08:08:20.173Z,1.96
2018-02-12T08:10:51.869Z,1.98
2018-02-12T08:13:23.080Z,2.03
2018-02-12T08:15:54.629Z,2.22
2018-02-12T08:18:26.082Z,2.23
2018-02-12T08:20:57.472Z,2.17
2018-02-12T08:23:28.636Z,2.12
2018-02-12T08:25:59.901Z,2.16
2018-02-12T08:28:31.346Z,2.19
2018-02-12T08:31:02.884Z,2.14
2018-02-12T08:33:33.994Z,2.26
2018-02-12T08:36:05.210Z,2.29
2018-02-12T08:38:36.305Z,2.47
2018-02-12T08:41:07.573Z,2.60
2018-02-12T08:43:39.036Z,2.70
2018-02-12T08:46:10.458Z,3.08
2018-02-12T08:48:41.987Z,3.25
2018-02-12T08:51:14.057Z,3.30
2018-02-12T08:53:45.606Z,3.31
2018-02-12T08:56:16.758Z,3.35
2018-02-12T08:58:47.866Z,3.86
2018-02-12T09:01:19.339Z,3.85
2018-02-12T09:03:50.483Z,3.47
2018-02-12T09:06:21.539Z,3.59
2018-02-12T09:08:52.764Z,3.68
2018-02-12T09:11:27.275Z,3.42
2018-02-12T09:13:58.300Z,3.37
2018-02-12T09:16:30.619Z,3.55
2018-02-12T09:19:14.648Z,3.39
2018-02-12T09:21:45.553Z,3.60
2018-02-12T09:24:17.393Z,4.21
2018-02-12T09:26:48.188Z,4.87
2018-02-12T09:29:22.180Z,5.12
2018-02-12T09:31:52.948Z,5.07
2018-02-12T09:34:23.737Z,4.78
2018-02-12T09:36:54.663Z,4.81
2018-02-12T09:39:25.463Z,4.49
2018-02-12T09:41:56.284Z,4.28
2018-02-12T09:44:27.072Z,4.58
2018-02-12T09:46:57.943Z,4.77
2018-02-12T09:49:28.798Z,4.62
2018-02-12T09:51:59.568Z,4.30
2018-02-12T09:54:30.343Z,4.18
2018-02-12T09:57:01.276Z,3.95
2018-02-12T09:59:32.138Z,3.98
2018-02-12T10:02:02.999Z,4.36
2018-02-12T10:04:34.858Z,4.55
2018-02-12T10:07:05.639Z,4.35
2018-02-12T10:09:37.575Z,4.63
2018-02-12T10:12:08.633Z,4.96
2018-02-12T10:14:40.512Z,5.22
2018-02-12T10:17:13.315Z,5.46
2018-02-12T11:05:34.200Z,6.65
2018-02-12T11:08:05.033Z,6.50
2018-02-12T11:10:38.192Z,6.05
2018-02-12T11:13:09.033Z,5.88
2018-02-12T11:15:39.861Z,5.48
2018-02-12T11:18:10.684Z,5.73
2018-02-12T11:20:41.542Z,5.59
2018-02-12T11:23:12.384Z,5.54
2018-02-12T11:25:44.309Z,5.48
2018-02-12T11:28:15.130Z,5.51
2018-02-12T11:30:45.924Z,5.62
2018-02-12T11:33:16.797Z,5.71
2018-02-12T11:35:47.646Z,5.69
2018-02-12T11:38:18.480Z,5.81
2018-02-12T11:40:49.328Z,5.86
2018-02-12T11:43:20.153Z,5.96
2018-02-12T11:45:50.958Z,6.16
2018-02-12T11:48:23.878Z,6.25
2018-02-12T11:50:54.694Z,6.36
2018-02-12T11:53:25.542Z,6.13
2018-02-12T11:55:56.328Z,5.86
2018-02-12T11:58:27.160Z,5.47
2018-02-12T12:00:58.001Z,4.96
2018-02-12T12:03:28.909Z,3.59
2018-02-12T12:05:59.782Z,2.96
2018-02-12T12:08:30.680Z,2.68
2018-02-12T12:11:01.557Z,2.69
2018-02-12T12:13:32.450Z,2.66
2018-02-12T12:16:03.388Z,3.17
2018-02-12T12:18:34.313Z,3.04
2018-02-12T12:21:05.245Z,3.33
2018-02-12T12:23:36.146Z,3.56
2018-02-12T12:26:08.025Z,3.56
2018-02-12T12:28:38.934Z,3.93
2018-02-12T12:31:09.769Z,3.77
2018-02-12T12:33:40.604Z,4.08
2018-02-12T12:36:11.523Z,4.04
2018-02-12T12:38:42.467Z,4.39
2018-02-12T12:41:13.281Z,4.52
2018-02-12T12:43:44.113Z,4.85
2018-02-12T12:46:14.991Z,5.04
2018-02-12T12:48:45.893Z,4.91
2018-02-12T12:51:16.751Z,4.40
2018-02-12T12:53:47.610Z,3.91
2018-02-12T12:56:19.436Z,3.23
2018-02-12T12:58:50.420Z,2.81
2018-02-12T13:01:21.359Z,2.66
2018-02-12T13:03:52.278Z,2.55
2018-02-12T13:06:23.092Z,2.38
2018-02-12T13:08:53.913Z,2.46
2018-02-12T13:11:24.717Z,2.67
2018-02-12T13:13:55.643Z,2.97
2018-02-12T13:16:26.538Z,3.09
2018-02-12T13:18:57.521Z,3.50
2018-02-12T13:21:28.310Z,3.52
2018-02-12T13:23:59.156Z,3.73
2018-02-12T13:26:29.970Z,4.10
2018-02-12T13:29:00.816Z,4.37
2018-02-12T13:31:31.601Z,4.63
2018-02-12T13:34:02.437Z,4.18
2018-02-12T13:36:33.268Z,4.37
2018-02-12T13:39:04.128Z,4.58
2018-02-12T13:41:34.937Z,4.67
2018-02-12T13:44:05.858Z,4.57
2018-02-12T13:46:36.733Z,4.33
2018-02-12T13:49:07.572Z,4.52
2018-02-12T13:51:38.398Z,4.24
2018-02-12T13:54:09.225Z,4.09
2018-02-12T13:56:40.071Z,4.30
2018-02-12T13:59:11.005Z,4.33
2018-02-12T14:01:41.839Z,4.03
2018-02-12T14:04:12.736Z,4.39
2018-02-12T14:06:43.548Z,5.22
2018-02-12T14:09:15.464Z,4.43
2018-02-12T14:11:47.435Z,3.74
2018-02-12T14:14:18.403Z,3.31
2018-02-12T14:16:50.311Z,3.58
2018-02-12T14:19:24.531Z,4.35
2018-02-12T14:21:59.049Z,4.62
2018-02-12T14:24:30.955Z,5.86
2018-02-12T14:27:01.941Z,4.83
2018-02-12T14:29:32.850Z,4.42
2018-02-12T14:32:03.744Z,4.68
2018-02-12T14:34:34.733Z,5.08
2018-02-12T14:37:05.622Z,4.85
2018-02-12T14:39:36.520Z,4.41
2018-02-12T14:42:08.432Z,4.25
2018-02-12T14:44:39.306Z,4.09
2018-02-12T14:47:10.161Z,3.72
2018-02-12T14:49:42.231Z,3.63
2018-02-12T14:52:13.102Z,3.58
2018-02-12T14:54:43.938Z,3.44
2018-02-12T14:57:14.774Z,3.32
2018-02-12T14:59:49.909Z,3.14
2018-02-12T15:02:20.817Z,3.03
2018-02-12T15:04:51.782Z,2.96
2018-02-12T15:07:22.705Z,3.05
2018-02-12T15:09:53.641Z,3.08
2018-02-12T15:12:25.625Z,3.40
2018-02-12T15:14:56.563Z,3.61
2018-02-12T15:17:27.393Z,3.65
2018-02-12T15:19:58.333Z,3.47
2018-02-12T15:22:29.174Z,3.49
2018-02-12T15:25:00.127Z,3.11
2018-02-12T15:27:30.958Z,3.27
2018-02-12T15:30:01.886Z,3.39
2018-02-12T15:32:32.727Z,3.52
2018-02-12T15:35:03.646Z,3.50
2018-02-12T15:37:34.481Z,3.47
2018-02-12T15:40:05.474Z,3.35
2018-02-12T15:42:36.377Z,2.97
2018-02-12T15:45:07.255Z,2.70
2018-02-12T15:47:38.091Z,2.67
2018-02-12T15:50:08.964Z,2.57
2018-02-12T15:52:39.799Z,2.62
2018-02-12T15:55:10.700Z,2.52
2018-02-12T15:57:41.584Z,2.46
2018-02-12T16:00:12.480Z,2.38
2018-02-12T16:02:43.379Z,2.13
2018-02-12T16:05:14.213Z,2.30
2018-02-12T16:07:45.049Z,2.22
2018-02-12T16:10:15.865Z,2.29
2018-02-12T16:12:46.700Z,2.28
2018-02-12T16:15:17.538Z,2.32
2018-02-12T16:17:48.450Z,2.29
2018-02-12T16:20:19.298Z,2.17
2018-02-12T16:22:50.238Z,2.21
2018-02-12T16:25:21.133Z,2.25
2018-02-12T16:27:52.043Z,2.15
2018-02-12T16:30:22.906Z,2.01
2018-02-12T16:32:53.748Z,1.86
2018-02-12T16:35:24.627Z,1.68
2018-02-12T16:37:55.530Z,1.48
2018-02-12T16:40:26.411Z,1.26
2018-02-12T16:42:57.271Z,1.13
2018-02-12T16:45:28.106Z,1.01
2018-02-12T16:47:58.989Z,1.02
2018-02-12T16:50:29.848Z,0.86
2018-02-12T16:53:00.783Z,0.74
2018-02-12T16:55:31.702Z,0.64
2018-02-12T16:58:02.563Z,0.69
2018-02-12T17:00:33.417Z,0.65
2018-02-12T17:03:04.301Z,0.68
2018-02-12T17:05:35.139Z,0.69
2018-02-12T17:08:06.041Z,0.63
2018-02-12T17:10:36.999Z,0.47
2018-02-12T17:13:07.898Z,0.38
2018-02-12T17:15:38.841Z,0.25
2018-02-12T17:18:09.737Z,0.15
2018-02-12T17:20:40.565Z,0.12
2018-02-12T17:23:11.470Z,0.09
2018-02-12T17:25:42.344Z,0.18
2018-02-12T17:28:13.172Z,0.37
2018-02-12T17:30:44.009Z,0.54
2018-02-12T17:33:14.908Z,0.84
2018-02-12T17:35:45.728Z,0.91
2018-02-12T17:38:16.601Z,1.02
2018-02-12T17:40:47.442Z,1.01
2018-02-12T17:43:18.281Z,1.04
2018-02-12T17:45:49.100Z,0.85
2018-02-12T17:48:19.951Z,0.61
2018-02-12T17:50:50.805Z,0.53
2018-02-12T17:53:21.656Z,0.34
2018-02-12T17:55:52.478Z,0.25
2018-02-12T17:58:23.344Z,0.25
2018-02-12T18:00:54.240Z,0.12
2018-02-12T18:03:25.198Z,0.11
2018-02-12T18:05:56.103Z,0.01
2018-02-12T18:08:27.053Z,-0.02
2018-02-12T18:10:57.912Z,-0.14
2018-02-12T18:13:28.801Z,-0.14
2018-02-12T18:15:59.634Z,-0.24
2018-02-12T18:18:30.473Z,-0.24
2018-02-12T18:21:01.287Z,-0.20
2018-02-12T18:23:32.783Z,-0.25
2018-02-12T18:26:03.619Z,-0.38
2018-02-12T18:28:34.451Z,-0.30
2018-02-12T18:31:05.260Z,-0.37
2018-02-12T18:33:36.117Z,-0.42
2018-02-12T18:36:06.949Z,-0.45
2018-02-12T18:38:37.859Z,-0.42
2018-02-12T18:41:08.757Z,-0.43
2018-02-12T18:43:39.565Z,-0.38
2018-02-12T18:46:10.354Z,-0.39
2018-02-12T18:48:44.177Z,-0.33
2018-02-12T18:51:15.025Z,-0.34
2018-02-12T18:53:45.927Z,-0.31
2018-02-12T18:56:16.912Z,-0.38
2018-02-12T18:58:47.762Z,-0.47
2018-02-12T19:01:18.616Z,-0.54
2018-02-12T19:03:49.414Z,-0.51
2018-02-12T19:06:20.229Z,-0.49
2018-02-12T19:08:51.046Z,-0.53
2018-02-12T19:11:21.901Z,-0.55
2018-02-12T19:13:52.886Z,-0.58
2018-02-12T19:16:23.710Z,-0.50
2018-02-12T19:18:54.617Z,-0.43
2018-02-12T19:21:25.451Z,-0.52
2018-02-12T19:23:56.378Z,-0.61
2018-02-12T19:26:27.264Z,-0.64
2018-02-12T19:28:58.122Z,-0.68
2018-02-12T19:31:28.960Z,-0.64
2018-02-12T19:34:00.837Z,-0.73
2018-02-12T19:36:31.678Z,-0.84
2018-02-12T19:39:02.626Z,-0.95
2018-02-12T19:41:33.480Z,-1.01
2018-02-12T19:44:04.331Z,-0.94
2018-02-12T19:46:35.260Z,-0.84
2018-02-12T19:49:06.138Z,-0.75
2018-02-12T19:51:37.049Z,-0.55
2018-02-12T19:54:07.951Z,-0.48
2018-02-12T19:56:38.825Z,-0.52
2018-02-12T19:59:09.688Z,-0.58
2018-02-12T20:01:40.520Z,-0.68
2018-02-12T20:04:11.366Z,-0.73
2018-02-12T20:06:44.206Z,-0.70
2018-02-12T20:09:15.080Z,-0.72
2018-02-12T20:11:45.918Z,-0.65
2018-02-12T20:14:16.765Z,-0.70
2018-02-12T20:16:47.564Z,-0.71
2018-02-12T20:19:18.434Z,-0.73
2018-02-12T20:21:49.238Z,-0.73
2018-02-12T20:24:20.073Z,-0.65
2018-02-12T20:26:50.911Z,-0.79
2018-02-12T20:29:21.744Z,-0.80
2018-02-12T20:31:52.560Z,-0.91
2018-02-12T20:34:23.429Z,-0.90
2018-02-12T20:36:54.296Z,-0.95
2018-02-12T20:39:25.094Z,-1.00
2018-02-12T20:41:55.907Z,-1.11
2018-02-12T20:44:26.753Z,-1.04
2018-02-12T20:46:57.631Z,-1.07
2018-02-12T20:49:28.510Z,-1.06
2018-02-12T20:51:59.327Z,-1.15
2018-02-12T20:54:30.170Z,-1.17
2018-02-12T20:57:01.000Z,-1.25
2018-02-12T20:59:31.817Z,-1.21
2018-02-12T21:02:02.659Z,-1.29
2018-02-12T21:04:33.506Z,-1.30
2018-02-12T21:07:04.325Z,-1.34
2018-02-12T21:09:35.185Z,-1.34
2018-02-12T21:12:06.001Z,-1.03
2018-02-12T21:14:36.828Z,-0.75
2018-02-12T21:17:07.637Z,-0.63
2018-02-12T21:19:38.493Z,-0.52
2018-02-12T21:22:10.395Z,-0.43
2018-02-12T21:24:41.265Z,-0.35
2018-02-12T21:27:12.093Z,-0.27
2018-02-12T21:29:42.950Z,-0.15
2018-02-12T21:32:13.749Z,-0.04
2018-02-12T21:34:44.571Z,-0.06
2018-02-12T21:37:15.411Z,-0.08
2018-02-12T21:39:46.313Z,-0.01
2018-02-12T21:42:17.127Z,-0.08
2018-02-12T21:44:47.983Z,-0.02
2018-02-12T21:47:18.824Z,-0.05
2018-02-12T21:49:49.718Z,-0.03
2018-02-12T21:52:20.533Z,-0.03
2018-02-12T21:54:51.329Z,0.05
2018-02-12T21:57:22.142Z,0.03
2018-02-12T21:59:53.020Z,0.07
2018-02-12T22:02:23.847Z,0.07
2018-02-12T22:04:54.659Z,0.05
2018-02-12T22:07:25.451Z,0.07
2018-02-12T22:09:56.299Z,0.03
2018-02-12T22:12:27.163Z,0.06
2018-02-12T22:14:58.042Z,0.14
2018-02-12T22:17:28.818Z,0.08
2018-02-12T22:19:59.658Z,0.16
2018-02-12T22:22:30.491Z,0.14
2018-02-12T22:25:01.332Z,0.16
2018-02-12T22:27:32.215Z,0.21
2018-02-12T22:30:03.154Z,0.26
2018-02-12T22:32:33.987Z,0.23
2018-02-12T22:35:04.841Z,0.24
2018-02-12T22:37:35.673Z,0.19
2018-02-12T22:40:06.551Z,0.15
2018-02-12T22:42:37.354Z,0.19
2018-02-12T22:45:08.223Z,0.20
2018-02-12T22:47:39.052Z,0.18
2018-02-12T22:50:09.954Z,0.09
2018-02-12T22:52:40.813Z,0.09
2018-02-12T22:55:11.674Z,0.09
2018-02-12T22:57:42.485Z,0.03
2018-02-12T23:00:13.366Z,-0.02
2018-02-12T23:02:44.220Z,0.10
2018-02-12T23:05:15.129Z,0.08
2018-02-12T23:07:46.053Z,0.08
2018-02-12T23:10:16.938Z,0.05
2018-02-12T23:12:47.784Z,0.10
2018-02-12T23:15:24.714Z,0.10
2018-02-12T23:17:55.593Z,0.09
2018-02-12T23:20:26.444Z,0.07
2018-02-12T23:22:59.316Z,-0.08
2018-02-12T23:25:30.214Z,0.01
2018-02-12T23:28:01.053Z,0.02
2018-02-12T23:30:31.903Z,0.05
2018-02-12T23:33:02.729Z,0.07
2018-02-12T23:35:33.672Z,0.00
2018-02-12T23:38:04.504Z,-0.02
2018-02-12T23:43:13.812Z,0.01
2018-02-12T23:45:44.643Z,-0.04
2018-02-12T23:48:15.471Z,-0.03
2018-02-12T23:50:46.294Z,-0.09
2018-02-12T23:53:17.143Z,-0.05
2018-02-12T23:55:47.969Z,-0.03
2018-02-12T23:58:18.768Z,0.08
